Time;durP1;ratioP1;P1;durP2;ratioP2;P2;SDS_P1;SDS_P2;PMS_P1;PMS_P2;Temp;Humidity;BMP_temperature;BMP_pressure;BME280_temperature;BME280_humidity;BME280_pressure;Samples;Min_cycle;Max_cycle;Signal;HPM_P1;HPM_P2
2022/12/13 00:01:36;;;;;;;2.65;0.45;;;30.10;40.30;;;;;;5049670;28;20156;-66
2022/12/13 00:04:06;;;;;;;0.73;0.28;;;30.60;39.30;;;;;;5052662;28;20107;-66
2022/12/13 00:06:34;;;;;;;2.38;0.50;;;30.70;37.20;;;;;;5049015;28;20066;-67
2022/12/13 00:09:02;;;;;;;2.85;0.60;;;31.10;38.70;;;;;;5060529;28;20415;-66
2022/12/13 00:11:30;;;;;;;2.05;0.80;;;31.20;37.00;;;;;;5056505;28;20397;-67
2022/12/13 00:13:57;;;;;;;1.10;0.60;;;31.70;37.20;;;;;;5049825;28;20024;-66
2022/12/13 00:16:26;;;;;;;2.70;0.50;;;31.90;36.00;;;;;;5039506;28;20035;-68
2022/12/13 00:18:56;;;;;;;3.30;0.98;;;31.80;36.50;;;;;;5037885;28;20026;-66
2022/12/13 00:21:26;;;;;;;1.83;0.50;;;31.80;38.70;;;;;;5052833;28;20481;-67
2022/12/13 00:23:53;;;;;;;0.95;0.50;;;32.00;36.60;;;;;;5048643;28;20033;-67
2022/12/13 00:26:24;;;;;;;0.63;0.32;;;31.70;36.50;;;;;;5058721;28;20091;-67
2022/12/13 00:28:53;;;;;;;0.95;0.38;;;32.00;35.50;;;;;;5058071;28;20195;-67
2022/12/13 00:31:22;;;;;;;1.75;0.45;;;32.20;38.20;;;;;;5042946;28;20022;-68
2022/12/13 00:33:50;;;;;;;1.48;0.68;;;32.20;34.70;;;;;;5048323;28;20021;-69
2022/12/13 00:36:17;;;;;;;2.45;0.60;;;32.30;36.80;;;;;;5053964;28;20043;-67
2022/12/13 00:38:44;;;;;;;1.25;0.38;;;32.40;38.00;;;;;;5030978;28;20482;-66
2022/12/13 00:41:16;;;;;;;1.73;0.45;;;32.80;36.20;;;;;;5050989;28;20028;-66
2022/12/13 00:43:43;;;;;;;1.30;0.40;;;32.90;35.30;;;;;;5044665;28;20052;-66
2022/12/13 00:46:16;;;;;;;3.05;0.60;;;32.80;35.00;;;;;;5041409;28;20041;-67
2022/12/13 00:48:44;;;;;;;1.52;0.50;;;32.50;35.30;;;;;;5043210;28;20021;-67
2022/12/13 00:51:12;;;;;;;1.55;0.60;;;32.70;35.70;;;;;;5043281;28;20385;-66
2022/12/13 00:53:39;;;;;;;2.10;0.55;;;32.50;32.90;;;;;;5063340;28;20087;-68
2022/12/13 00:56:20;;;;;;;5.45;0.50;;;32.10;34.20;;;;;;5043889;28;20018;-68
2022/12/13 00:58:49;;;;;;;2.10;0.40;;;32.10;36.90;;;;;;5042845;28;20079;-68
2022/12/13 01:01:19;;;;;;;1.08;0.32;;;31.90;36.00;;;;;;5049060;28;20045;-68
2022/12/13 01:03:46;;;;;;;2.47;0.50;;;31.80;35.20;;;;;;5042494;28;20033;-69
2022/12/13 01:06:20;;;;;;;3.20;0.73;;;31.50;38.20;;;;;;5061991;28;20553;-68
2022/12/13 01:08:48;;;;;;;1.85;0.70;;;31.10;35.00;;;;;;5053927;28;20044;-68
2022/12/13 01:11:16;;;;;;;3.55;0.68;;;30.80;36.10;;;;;;5054337;28;20040;-68
2022/12/13 01:13:43;;;;;;;2.97;0.70;;;30.90;37.40;;;;;;5047763;28;20025;-69
2022/12/13 01:16:12;;;;;;;2.05;0.50;;;31.00;36.50;;;;;;5048060;28;20504;-68
2022/12/13 01:18:40;;;;;;;2.70;0.65;;;31.30;38.50;;;;;;5040404;28;20063;-68
2022/12/13 01:21:11;;;;;;;3.90;0.40;;;31.70;37.40;;;;;;5055120;28;20375;-68
2022/12/13 01:23:39;;;;;;;2.22;0.40;;;32.00;35.40;;;;;;5044885;28;20013;-68
2022/12/13 01:26:09;;;;;;;2.80;0.50;;;32.10;34.90;;;;;;5042938;28;20121;-67
2022/12/13 01:28:36;;;;;;;1.88;0.50;;;32.00;38.30;;;;;;5061924;28;20017;-67
2022/12/13 01:31:09;;;;;;;2.00;0.50;;;32.00;34.50;;;;;;5047646;28;20025;-67
2022/12/13 01:33:37;;;;;;;2.70;0.67;;;32.40;37.60;;;;;;5046908;28;20094;-67
2022/12/13 01:36:07;;;;;;;2.28;0.60;;;32.50;36.20;;;;;;5053782;28;20025;-67
2022/12/13 01:38:35;;;;;;;3.40;0.40;;;32.50;36.20;;;;;;5057627;28;20025;-66
2022/12/13 01:41:02;;;;;;;1.77;0.75;;;32.50;35.20;;;;;;5051156;28;20021;-66
2022/12/13 01:43:53;;;;;;;3.72;0.55;;;32.50;34.80;;;;;;5062109;28;20049;-68
2022/12/13 01:46:20;;;;;;;2.13;0.55;;;32.50;37.70;;;;;;5053322;28;20444;-67
2022/12/13 01:49:00;;;;;;;1.27;0.50;;;32.90;35.80;;;;;;5058952;28;20017;-66
2022/12/13 01:51:46;;;;;;;2.55;0.50;;;33.00;35.90;;;;;;5052738;28;20466;-67
2022/12/13 01:54:18;;;;;;;2.50;0.43;;;33.00;34.90;;;;;;5054624;28;20044;-69
2022/12/13 01:56:51;;;;;;;3.60;0.70;;;33.10;36.10;;;;;;5064535;28;20078;-68
2022/12/13 01:59:21;;;;;;;1.73;0.50;;;33.20;37.10;;;;;;5064183;28;20027;-68
2022/12/13 02:01:50;;;;;;;3.03;0.57;;;33.00;35.70;;;;;;5055675;28;20025;-68
2022/12/13 02:04:27;;;;;;;4.15;0.60;;;32.60;34.10;;;;;;5039313;28;20072;-68
2022/12/13 02:06:57;;;;;;;2.58;0.32;;;32.20;35.90;;;;;;5059550;28;20111;-68
2022/12/13 02:09:25;;;;;;;2.88;1.05;;;31.80;33.60;;;;;;5055995;28;20029;-69
2022/12/13 02:11:53;;;;;;;0.73;0.45;;;31.70;34.00;;;;;;5049565;28;20029;-68
2022/12/13 02:14:20;;;;;;;1.35;0.43;;;31.60;38.30;;;;;;5055215;28;20036;-68
2022/12/13 02:16:53;;;;;;;1.20;0.47;;;31.60;36.30;;;;;;5056844;28;20100;-68
2022/12/13 02:20:28;;;;;;;1.77;0.50;;;31.80;40.30;;;;;;5059692;28;20478;-68
2022/12/13 02:23:26;;;;;;;2.57;0.60;;;32.10;38.10;;;;;;5080725;28;20039;-69
2022/12/13 02:26:06;;;;;;;1.48;0.38;;;32.80;38.90;;;;;;5088218;28;20032;-68
2022/12/13 02:28:46;;;;;;;3.10;0.60;;;33.00;36.70;;;;;;5054792;28;20544;-69
2022/12/13 02:31:27;;;;;;;3.65;1.20;;;33.20;37.30;;;;;;5059180;28;20017;-69
2022/12/13 02:34:07;;;;;;;1.92;0.47;;;33.60;35.30;;;;;;5050347;28;20072;-68
2022/12/13 02:37:05;;;;;;;1.40;0.40;;;33.90;36.70;;;;;;5052497;28;20644;-71
2022/12/13 02:39:41;;;;;;;3.05;0.60;;;33.50;36.40;;;;;;5036687;28;20075;-72
2022/12/13 02:42:23;;;;;;;1.75;0.50;;;32.90;36.60;;;;;;5040760;28;20025;-71
2022/12/13 02:45:16;;;;;;;1.25;0.47;;;32.80;37.00;;;;;;5050545;28;20054;-72
2022/12/13 02:47:46;;;;;;;1.35;0.30;;;32.80;37.10;;;;;;5058648;28;20045;-71
2022/12/13 02:50:15;;;;;;;1.10;0.30;;;33.10;34.70;;;;;;5053235;28;20499;-72
2022/12/13 02:52:45;;;;;;;1.67;0.50;;;33.30;34.60;;;;;;5063546;28;20028;-69
2022/12/13 02:55:14;;;;;;;2.88;0.63;;;33.40;35.20;;;;;;5062032;28;20027;-65
2022/12/13 02:57:44;;;;;;;1.77;0.43;;;33.30;36.80;;;;;;5061363;28;20050;-62
2022/12/13 03:00:14;;;;;;;1.75;0.35;;;33.40;36.90;;;;;;5060836;28;20036;-64
2022/12/13 03:03:18;;;;;;;1.05;0.50;;;33.30;35.60;;;;;;5057156;28;20020;-64
2022/12/13 03:08:36;;;;;;;2.63;0.45;;;33.10;36.40;;;;;;5037542;28;20103;-66
2022/12/13 03:11:06;;;;;;;2.00;0.85;;;32.80;37.10;;;;;;5045373;28;20075;-68
2022/12/13 03:13:48;;;;;;;2.55;0.50;;;32.90;35.90;;;;;;5044287;28;20032;-67
2022/12/13 03:16:26;;;;;;;1.42;0.30;;;32.90;36.50;;;;;;5053203;28;20020;-66
2022/12/13 03:18:58;;;;;;;0.85;0.30;;;33.00;37.10;;;;;;5046982;28;20373;-64
2022/12/13 03:21:26;;;;;;;2.38;0.40;;;32.90;35.80;;;;;;5046145;28;20018;-64
2022/12/13 03:23:54;;;;;;;2.33;0.45;;;33.20;36.00;;;;;;5041129;28;20025;-65
2022/12/13 03:26:26;;;;;;;1.75;0.52;;;33.10;35.10;;;;;;5047110;28;20043;-65
2022/12/13 03:28:53;;;;;;;3.83;0.50;;;33.20;35.50;;;;;;5039892;28;20350;-64
2022/12/13 03:31:20;;;;;;;5.03;0.68;;;33.10;33.50;;;;;;5050852;28;20040;-65
2022/12/13 03:33:48;;;;;;;3.10;0.50;;;32.70;33.30;;;;;;5044260;28;20083;-65
2022/12/13 03:36:17;;;;;;;3.72;0.60;;;32.60;34.20;;;;;;5055945;28;20103;-64
2022/12/13 03:38:47;;;;;;;2.35;0.40;;;32.70;35.20;;;;;;5042220;28;20021;-64
2022/12/13 03:41:17;;;;;;;1.17;0.40;;;32.50;34.40;;;;;;5045112;28;20029;-64
2022/12/13 03:43:45;;;;;;;3.65;0.80;;;32.50;34.30;;;;;;5040955;28;20190;-64
2022/12/13 03:46:12;;;;;;;2.63;0.70;;;32.50;34.40;;;;;;5053315;28;20032;-64
2022/12/13 03:48:40;;;;;;;1.05;0.35;;;32.00;34.20;;;;;;5043900;28;20013;-66
2022/12/13 03:51:07;;;;;;;2.22;0.50;;;31.40;34.40;;;;;;5042564;28;20032;-64
2022/12/13 03:53:34;;;;;;;4.88;0.82;;;31.60;36.20;;;;;;5062164;28;20035;-64
2022/12/13 03:56:04;;;;;;;4.93;1.00;;;32.00;36.80;;;;;;5052637;28;20032;-65
2022/12/13 03:58:33;;;;;;;2.70;0.47;;;32.10;34.80;;;;;;5062490;28;20016;-64
2022/12/13 04:01:00;;;;;;;3.63;0.50;;;32.20;34.80;;;;;;5058864;28;20025;-65
2022/12/13 04:03:27;;;;;;;1.38;0.32;;;32.10;34.90;;;;;;5043735;28;20339;-66
2022/12/13 04:05:54;;;;;;;3.95;0.73;;;32.00;35.60;;;;;;5040730;28;20037;-64
2022/12/13 04:08:22;;;;;;;1.52;0.38;;;32.20;36.40;;;;;;5064817;28;20036;-64
2022/12/13 04:10:49;;;;;;;1.50;0.45;;;32.40;35.70;;;;;;5057180;28;20070;-64
2022/12/13 04:13:31;;;;;;;1.90;0.52;;;32.10;33.70;;;;;;5049779;28;20036;-64
2022/12/13 04:15:58;;;;;;;3.38;0.60;;;32.00;35.70;;;;;;5044233;28;20053;-66
2022/12/13 04:18:26;;;;;;;6.03;0.75;;;32.00;32.00;;;;;;5045688;28;20054;-65
2022/12/13 04:20:53;;;;;;;13.73;0.90;;;31.30;34.00;;;;;;5052477;28;20022;-64
2022/12/13 04:23:20;;;;;;;11.38;1.00;;;30.90;34.40;;;;;;5048836;28;20351;-64
2022/12/13 04:25:48;;;;;;;4.40;1.17;;;30.90;34.80;;;;;;5050849;28;20085;-65
2022/12/13 04:28:15;;;;;;;4.35;0.40;;;30.50;35.60;;;;;;5049672;28;20040;-64
2022/12/13 04:30:42;;;;;;;1.92;0.55;;;30.50;36.80;;;;;;5056694;28;20027;-64
2022/12/13 04:33:09;;;;;;;1.45;0.60;;;30.70;35.40;;;;;;5059487;28;20031;-64
2022/12/13 04:35:36;;;;;;;0.77;0.40;;;30.80;35.70;;;;;;5061666;28;20029;-64
2022/12/13 04:38:03;;;;;;;1.10;0.40;;;30.90;34.60;;;;;;5054494;28;20057;-65
2022/12/13 04:40:31;;;;;;;2.30;0.30;;;30.80;35.30;;;;;;5056589;28;20021;-64
2022/12/13 04:42:58;;;;;;;2.35;0.38;;;31.00;35.20;;;;;;5050428;28;20055;-64
2022/12/13 04:45:25;;;;;;;1.67;0.30;;;31.10;34.70;;;;;;5061001;28;20103;-64
2022/12/13 04:47:53;;;;;;;4.22;0.60;;;31.30;34.30;;;;;;5048827;28;20032;-64
2022/12/13 04:50:20;;;;;;;2.45;0.47;;;31.30;33.60;;;;;;5064435;28;20044;-64
2022/12/13 04:52:47;;;;;;;1.92;0.55;;;31.30;33.80;;;;;;5046196;28;20040;-65
2022/12/13 04:55:14;;;;;;;3.53;0.60;;;31.20;34.50;;;;;;5044573;28;20032;-64
2022/12/13 04:57:42;;;;;;;1.00;0.30;;;31.00;34.30;;;;;;5055573;28;20025;-65
2022/12/13 05:00:12;;;;;;;1.50;0.30;;;31.00;35.00;;;;;;5057028;28;20130;-65
2022/12/13 05:02:40;;;;;;;1.65;0.40;;;31.10;35.90;;;;;;5048650;28;20043;-64
2022/12/13 05:05:10;;;;;;;1.70;0.70;;;31.30;36.70;;;;;;5058780;28;20024;-65
2022/12/13 05:07:38;;;;;;;4.10;0.60;;;31.20;34.40;;;;;;5053161;28;20017;-64
2022/12/13 05:10:06;;;;;;;2.15;0.50;;;31.00;33.80;;;;;;5062338;28;20386;-65
2022/12/13 05:12:33;;;;;;;3.03;0.60;;;30.80;34.90;;;;;;5050886;28;20020;-65
2022/12/13 05:15:00;;;;;;;1.23;0.50;;;31.00;35.90;;;;;;5058894;28;20110;-65
2022/12/13 05:17:27;;;;;;;2.97;0.73;;;30.60;33.90;;;;;;5061966;28;20104;-64
2022/12/13 05:19:54;;;;;;;0.88;0.40;;;30.50;35.20;;;;;;5038415;28;20360;-65
2022/12/13 05:22:22;;;;;;;3.50;0.32;;;30.60;35.40;;;;;;5046504;28;20029;-64
2022/12/13 05:24:50;;;;;;;3.13;0.43;;;30.70;35.30;;;;;;5043458;28;20086;-67
2022/12/13 05:27:17;;;;;;;2.78;0.57;;;30.70;35.70;;;;;;5051559;28;20437;-66
2022/12/13 05:29:44;;;;;;;1.83;0.40;;;30.50;34.20;;;;;;5043022;28;20021;-66
2022/12/13 05:32:11;;;;;;;2.88;0.28;;;30.50;35.00;;;;;;5048222;28;20092;-66
2022/12/13 05:34:39;;;;;;;1.70;0.30;;;30.30;34.90;;;;;;5042195;28;20690;-66
2022/12/13 05:37:06;;;;;;;2.67;0.40;;;30.10;35.70;;;;;;5050926;28;20044;-65
2022/12/13 05:39:33;;;;;;;1.30;0.55;;;29.90;36.10;;;;;;5049839;28;20104;-65
2022/12/13 05:42:00;;;;;;;1.58;0.50;;;30.00;35.50;;;;;;5064545;28;20020;-65
2022/12/13 05:44:28;;;;;;;1.88;0.47;;;30.20;35.90;;;;;;5053402;28;20052;-67
2022/12/13 05:46:55;;;;;;;3.70;1.05;;;30.20;35.60;;;;;;5044409;28;20098;-66
2022/12/13 05:49:22;;;;;;;3.13;0.77;;;30.50;34.80;;;;;;5059340;28;20056;-65
2022/12/13 05:51:49;;;;;;;3.05;0.45;;;30.20;35.00;;;;;;5053515;28;20033;-67
2022/12/13 05:54:17;;;;;;;3.50;0.70;;;30.20;34.90;;;;;;5043467;28;20021;-66
2022/12/13 05:56:44;;;;;;;2.65;0.47;;;30.20;34.70;;;;;;5044965;28;20048;-66
2022/12/13 05:59:11;;;;;;;3.45;0.38;;;30.10;35.10;;;;;;5054611;28;20043;-66
2022/12/13 06:01:38;;;;;;;2.97;0.60;;;29.90;34.50;;;;;;5033343;28;20048;-67
2022/12/13 06:04:05;;;;;;;3.15;0.45;;;30.00;35.70;;;;;;5040781;28;20032;-66
2022/12/13 06:06:33;;;;;;;2.00;0.32;;;30.20;35.20;;;;;;5037388;28;20069;-66
2022/12/13 06:09:00;;;;;;;3.15;0.35;;;30.40;35.30;;;;;;5032591;28;20394;-66
2022/12/13 06:11:27;;;;;;;4.35;0.40;;;30.50;35.30;;;;;;5038860;28;20424;-66
2022/12/13 06:13:54;;;;;;;2.20;0.40;;;30.50;34.10;;;;;;5036241;28;20108;-66
2022/12/13 06:16:22;;;;;;;2.72;0.73;;;30.50;35.00;;;;;;5041463;28;20044;-67
2022/12/13 06:18:49;;;;;;;1.52;0.32;;;30.80;34.40;;;;;;5038538;28;20018;-67
2022/12/13 06:21:16;;;;;;;4.05;0.50;;;30.50;33.60;;;;;;5041627;28;20020;-66
2022/12/13 06:23:43;;;;;;;3.55;0.40;;;30.50;33.70;;;;;;5043453;28;20039;-67
2022/12/13 06:26:10;;;;;;;3.42;0.45;;;30.50;34.20;;;;;;5041754;28;21148;-66
2022/12/13 06:28:38;;;;;;;3.25;0.90;;;30.60;33.80;;;;;;5043647;28;20027;-66
2022/12/13 06:31:05;;;;;;;2.88;0.65;;;30.50;33.70;;;;;;5037550;28;20546;-66
2022/12/13 06:33:37;;;;;;;3.25;1.20;;;30.60;34.40;;;;;;5039583;28;20079;-67
2022/12/13 06:36:05;;;;;;;3.75;2.13;;;30.80;33.10;;;;;;5043375;28;20090;-67
2022/12/13 06:38:33;;;;;;;10.68;2.67;;;30.70;34.00;;;;;;5039527;28;20083;-67
2022/12/13 06:41:26;;;;;;;4.65;0.90;;;30.60;33.30;;;;;;5042800;28;20060;-66
2022/12/13 06:43:53;;;;;;;2.95;0.57;;;30.40;32.40;;;;;;5039946;28;20441;-67
2022/12/13 06:46:21;;;;;;;2.70;0.57;;;30.30;33.40;;;;;;5045199;28;20393;-67
2022/12/13 06:48:48;;;;;;;2.20;0.35;;;29.90;33.70;;;;;;5043252;28;20022;-66
2022/12/13 06:51:16;;;;;;;1.05;0.30;;;30.00;33.70;;;;;;5043318;28;20115;-67
2022/12/13 06:53:43;;;;;;;2.28;0.65;;;30.10;33.50;;;;;;5035199;28;20471;-66
2022/12/13 06:56:13;;;;;;;1.05;0.38;;;30.40;33.00;;;;;;5042425;28;20029;-67
2022/12/13 06:58:41;;;;;;;1.52;0.47;;;30.30;32.80;;;;;;5038506;28;20029;-67
2022/12/13 07:01:18;;;;;;;1.60;0.50;;;30.30;32.90;;;;;;5040805;28;20510;-66
2022/12/13 07:03:46;;;;;;;1.17;0.32;;;30.30;32.90;;;;;;5042545;28;20064;-67
2022/12/13 07:06:19;;;;;;;3.80;0.50;;;30.20;32.70;;;;;;5032925;28;20037;-67
2022/12/13 07:08:52;;;;;;;1.55;0.47;;;30.00;33.70;;;;;;5042753;28;20029;-67
2022/12/13 07:11:23;;;;;;;1.48;0.43;;;29.70;33.50;;;;;;5044177;28;20545;-66
2022/12/13 07:13:51;;;;;;;4.07;0.63;;;29.30;34.00;;;;;;5033596;28;20037;-66
2022/12/13 07:16:18;;;;;;;1.25;0.50;;;29.00;33.60;;;;;;5034522;28;20029;-66
2022/12/13 07:18:46;;;;;;;2.10;0.50;;;29.10;34.40;;;;;;5037595;28;20135;-66
2022/12/13 07:21:14;;;;;;;4.10;0.60;;;29.00;35.00;;;;;;5036119;28;20040;-67
2022/12/13 07:23:41;;;;;;;1.27;0.50;;;28.80;34.50;;;;;;5029892;28;20025;-66
2022/12/13 07:26:09;;;;;;;1.25;0.40;;;28.60;34.50;;;;;;5037443;28;20033;-66
2022/12/13 07:28:37;;;;;;;3.00;0.40;;;28.40;34.50;;;;;;5035578;28;20017;-66
2022/12/13 07:31:07;;;;;;;1.65;0.40;;;28.30;35.10;;;;;;5033670;28;20423;-66
2022/12/13 07:33:35;;;;;;;3.83;0.70;;;28.20;35.40;;;;;;5033409;28;20553;-67
2022/12/13 07:36:03;;;;;;;2.75;0.45;;;28.30;34.70;;;;;;5031997;28;20035;-67
2022/12/13 07:38:30;;;;;;;1.73;0.35;;;28.20;34.90;;;;;;5034674;28;20656;-67
2022/12/13 07:40:57;;;;;;;0.70;0.30;;;28.00;35.90;;;;;;5030382;28;20086;-67
2022/12/13 07:43:25;;;;;;;2.13;0.45;;;27.90;36.10;;;;;;5036930;28;20599;-66
2022/12/13 07:45:53;;;;;;;1.05;0.40;;;27.70;36.10;;;;;;5042034;28;20143;-67
2022/12/13 07:48:20;;;;;;;5.88;0.85;;;27.50;36.50;;;;;;5046171;28;20362;-67
2022/12/13 07:50:48;;;;;;;5.72;1.33;;;27.20;36.60;;;;;;5037913;28;20025;-68
2022/12/13 07:53:15;;;;;;;5.57;1.10;;;27.10;36.80;;;;;;5038881;28;20033;-67
2022/12/13 07:55:42;;;;;;;1.45;0.60;;;26.80;37.10;;;;;;5043687;28;20452;-68
2022/12/13 07:58:12;;;;;;;2.80;0.52;;;26.50;36.60;;;;;;5048683;28;20111;-67
2022/12/13 08:00:41;;;;;;;3.03;0.45;;;26.30;36.80;;;;;;5047553;28;20028;-68
2022/12/13 08:03:09;;;;;;;3.00;0.63;;;26.10;37.40;;;;;;5045376;28;20033;-68
2022/12/13 08:05:37;;;;;;;1.23;0.57;;;26.00;37.60;;;;;;5049131;28;20421;-67
2022/12/13 08:08:10;;;;;;;1.55;0.55;;;25.70;38.00;;;;;;5034713;28;20035;-68
2022/12/13 08:10:37;;;;;;;2.72;0.45;;;25.50;38.50;;;;;;5042698;28;20032;-65
2022/12/13 08:13:06;;;;;;;2.65;0.68;;;25.30;39.00;;;;;;5037896;28;20167;-67
2022/12/13 08:15:33;;;;;;;3.88;0.70;;;25.20;38.90;;;;;;5046136;28;20018;-68
2022/12/13 08:18:00;;;;;;;2.67;0.85;;;25.10;39.30;;;;;;5048546;28;20021;-66
2022/12/13 08:20:27;;;;;;;4.85;0.80;;;25.00;39.70;;;;;;5043456;28;20036;-68
2022/12/13 08:22:56;;;;;;;1.55;0.52;;;24.90;39.80;;;;;;5045511;28;20442;-66
2022/12/13 08:25:24;;;;;;;4.13;0.88;;;24.80;40.90;;;;;;5050616;28;20025;-65
2022/12/13 08:27:52;;;;;;;4.00;1.05;;;24.70;40.50;;;;;;5044746;28;20473;-66
2022/12/13 08:30:19;;;;;;;1.70;0.52;;;24.60;40.10;;;;;;5049079;28;20453;-67
2022/12/13 08:32:50;;;;;;;2.22;0.40;;;24.50;40.00;;;;;;5045854;28;20064;-65
2022/12/13 08:35:20;;;;;;;3.50;1.50;;;24.30;40.70;;;;;;5047349;28;20021;-67
2022/12/13 08:37:47;;;;;;;2.47;0.57;;;24.30;41.00;;;;;;5045827;28;20055;-66
2022/12/13 08:40:14;;;;;;;2.35;0.50;;;24.10;41.00;;;;;;5063249;28;20086;-66
2022/12/13 08:42:42;;;;;;;2.60;0.50;;;24.00;41.10;;;;;;5046790;28;20029;-66
2022/12/13 08:45:09;;;;;;;3.00;0.70;;;23.90;41.80;;;;;;5056280;28;20055;-65
2022/12/13 08:47:37;;;;;;;3.55;0.52;;;23.80;42.20;;;;;;5058097;28;20041;-67
2022/12/13 08:50:04;;;;;;;1.35;0.50;;;23.70;42.00;;;;;;5046748;28;20068;-68
2022/12/13 08:52:33;;;;;;;1.77;0.90;;;23.50;42.30;;;;;;5041000;28;20249;-67
2022/12/13 08:55:00;;;;;;;4.28;0.63;;;23.40;41.80;;;;;;5035353;28;20075;-70
2022/12/13 08:57:28;;;;;;;5.20;0.80;;;23.30;42.30;;;;;;5046722;28;20038;-67
2022/12/13 08:59:55;;;;;;;11.73;1.58;;;23.30;42.50;;;;;;5046485;28;20024;-68
2022/12/13 09:02:22;;;;;;;4.38;0.60;;;23.10;44.10;;;;;;5049054;28;20563;-69
2022/12/13 09:04:49;;;;;;;2.72;0.80;;;22.90;48.10;;;;;;5054724;28;20045;-71
2022/12/13 09:07:16;;;;;;;7.45;1.13;;;22.70;53.90;;;;;;5039322;28;20037;-68
2022/12/13 09:09:44;;;;;;;5.95;0.70;;;22.40;56.20;;;;;;5035374;28;20076;-69
2022/12/13 09:12:11;;;;;;;2.85;0.77;;;22.20;56.70;;;;;;5042547;28;20041;-71
2022/12/13 09:14:38;;;;;;;5.65;1.00;;;21.90;57.30;;;;;;5036581;28;20096;-68
2022/12/13 09:17:06;;;;;;;5.40;1.00;;;21.70;58.90;;;;;;5044525;28;20460;-67
2022/12/13 09:19:33;;;;;;;6.38;1.00;;;21.40;59.60;;;;;;5037060;28;20021;-68
2022/12/13 09:22:00;;;;;;;3.80;0.82;;;21.20;60.70;;;;;;5033437;28;20026;-67
2022/12/13 09:24:28;;;;;;;4.35;0.70;;;21.10;61.40;;;;;;5036933;28;20041;-68
2022/12/13 09:26:55;;;;;;;3.47;1.25;;;20.90;61.90;;;;;;5036626;28;20080;-66
2022/12/13 09:29:22;;;;;;;3.47;0.85;;;20.70;63.00;;;;;;5035489;28;20026;-67
2022/12/13 09:31:50;;;;;;;3.63;0.70;;;20.60;63.50;;;;;;5044689;28;20807;-66
2022/12/13 09:34:17;;;;;;;6.43;1.00;;;20.60;64.80;;;;;;5047309;28;20036;-67
2022/12/13 09:36:44;;;;;;;5.47;0.95;;;20.50;65.60;;;;;;5040461;28;20029;-68
2022/12/13 09:39:12;;;;;;;5.15;0.70;;;20.40;65.50;;;;;;5031937;28;20032;-67
2022/12/13 09:41:48;;;;;;;4.10;1.38;;;20.40;62.20;;;;;;5037150;28;20033;-67
2022/12/13 09:44:33;;;;;;;2.65;0.63;;;20.40;67.80;;;;;;5037672;28;20483;-67
2022/12/13 09:47:04;;;;;;;7.47;0.70;;;20.30;68.40;;;;;;5055822;28;20040;-66
2022/12/13 09:49:52;;;;;;;12.65;1.15;;;20.20;70.60;;;;;;5035843;28;20025;-66
2022/12/13 09:52:22;;;;;;;4.85;0.90;;;20.10;72.10;;;;;;5032608;28;20513;-66
2022/12/13 09:54:58;;;;;;;5.18;0.90;;;20.20;73.50;;;;;;5042500;28;20025;-66
2022/12/13 09:57:31;;;;;;;6.55;1.60;;;20.20;74.50;;;;;;5041968;28;20025;-69
2022/12/13 09:59:59;;;;;;;3.75;1.05;;;20.10;75.70;;;;;;5051044;28;20137;-68
2022/12/13 10:02:32;;;;;;;5.38;0.98;;;19.90;77.00;;;;;;5043148;28;20408;-68
2022/12/13 10:05:34;;;;;;;4.88;0.70;;;19.80;77.80;;;;;;5045175;28;20432;-68
2022/12/13 10:08:35;;;;;;;6.47;0.70;;;19.60;80.10;;;;;;5049445;28;20048;-67
2022/12/13 10:11:04;;;;;;;6.22;0.98;;;19.90;79.40;;;;;;5050255;28;20048;-67
2022/12/13 10:13:37;;;;;;;5.20;1.40;;;19.80;80.80;;;;;;5043073;28;20436;-66
2022/12/13 10:16:14;;;;;;;5.00;1.15;;;19.80;81.80;;;;;;5043777;28;20025;-68
2022/12/13 10:18:43;;;;;;;2.35;0.70;;;19.60;81.60;;;;;;5044327;28;20031;-68
2022/12/13 10:21:36;;;;;;;5.53;0.93;;;19.60;81.20;;;;;;5050011;28;20045;-68
2022/12/13 10:24:26;;;;;;;2.67;0.88;;;19.40;81.20;;;;;;5050235;28;20048;-68
2022/12/13 10:26:55;;;;;;;3.90;0.60;;;19.10;79.90;;;;;;5045586;28;20040;-67
2022/12/13 10:29:23;;;;;;;4.93;0.63;;;18.90;80.00;;;;;;5054014;28;20102;-67
2022/12/13 10:31:52;;;;;;;4.57;1.23;;;18.70;80.20;;;;;;5039740;28;20087;-66
2022/12/13 10:34:35;;;;;;;6.97;1.20;;;18.50;82.70;;;;;;5040906;28;20036;-66
2022/12/13 10:37:29;;;;;;;5.78;1.23;;;18.40;85.70;;;;;;5037412;28;20467;-67
2022/12/13 10:40:00;;;;;;;2.88;0.98;;;18.20;87.40;;;;;;5039479;28;20490;-68
2022/12/13 10:42:27;;;;;;;2.97;0.80;;;18.00;87.30;;;;;;5037506;28;20022;-68
2022/12/13 10:45:20;;;;;;;9.13;1.38;;;17.90;88.60;;;;;;5031723;28;20087;-68
2022/12/13 10:47:48;;;;;;;3.90;1.52;;;17.80;90.80;;;;;;5035551;28;20045;-64
2022/12/13 10:50:33;;;;;;;6.57;1.13;;;17.80;91.90;;;;;;5040281;28;20021;-65
2022/12/13 10:53:00;;;;;;;5.47;1.30;;;17.90;91.40;;;;;;5038527;28;20582;-65
2022/12/13 10:55:39;;;;;;;4.82;1.50;;;18.00;91.30;;;;;;5043045;28;20025;-68
2022/12/13 10:58:17;;;;;;;6.80;1.02;;;18.00;91.30;;;;;;5040248;28;20592;-67
2022/12/13 11:00:45;;;;;;;3.40;1.15;;;18.00;91.70;;;;;;5034983;28;20389;-68
2022/12/13 11:03:33;;;;;;;3.15;1.02;;;18.00;92.20;;;;;;5039910;28;20025;-68
2022/12/13 11:06:13;;;;;;;3.53;0.80;;;18.00;92.60;;;;;;5046442;28;20039;-68
2022/12/13 11:08:40;;;;;;;5.07;1.00;;;17.90;92.50;;;;;;5041638;28;20029;-69
2022/12/13 11:11:08;;;;;;;5.47;1.35;;;17.80;92.30;;;;;;5051172;28;20036;-67
2022/12/13 11:13:45;;;;;;;3.08;0.80;;;17.60;92.80;;;;;;5043314;28;20025;-68
2022/12/13 11:16:48;;;;;;;3.65;0.88;;;17.50;92.80;;;;;;5039369;28;20393;-66
2022/12/13 11:19:24;;;;;;;7.60;1.10;;;17.30;93.30;;;;;;5040462;28;20567;-68
2022/12/13 11:21:53;;;;;;;5.80;0.93;;;17.20;94.60;;;;;;5045156;28;20552;-67
2022/12/13 11:24:32;;;;;;;6.00;1.25;;;17.20;95.50;;;;;;5034619;28;20029;-65
2022/12/13 11:27:23;;;;;;;8.27;1.08;;;17.20;95.70;;;;;;5039401;28;20041;-68
2022/12/13 11:30:11;;;;;;;3.58;0.73;;;17.20;96.20;;;;;;5038877;28;20075;-67
2022/12/13 11:32:48;;;;;;;8.27;1.40;;;17.30;96.30;;;;;;5051042;28;20029;-67
2022/12/13 11:35:18;;;;;;;4.75;1.50;;;17.40;95.90;;;;;;5050813;28;20548;-67
2022/12/13 11:37:53;;;;;;;2.85;0.93;;;17.40;95.80;;;;;;5050838;28;20031;-68
2022/12/13 11:40:26;;;;;;;8.43;1.58;;;17.40;95.60;;;;;;5050346;28;20029;-66
2022/12/13 11:43:36;;;;;;;5.03;1.38;;;17.40;95.80;;;;;;5037834;28;20051;-69
2022/12/13 11:46:13;;;;;;;5.47;0.95;;;17.40;96.20;;;;;;5033297;28;20054;-68
2022/12/13 11:48:55;;;;;;;4.93;1.48;;;17.30;95.80;;;;;;5041708;28;20223;-69
2022/12/13 11:51:35;;;;;;;5.95;1.00;;;17.30;96.40;;;;;;5050253;28;20025;-67
2022/12/13 11:54:13;;;;;;;4.90;1.10;;;17.10;96.20;;;;;;5033473;28;20099;-69
2022/12/13 11:56:43;;;;;;;6.55;0.95;;;17.00;96.50;;;;;;5046593;28;20412;-67
2022/12/13 11:59:43;;;;;;;4.40;0.85;;;17.00;97.10;;;;;;5039809;28;20029;-67
2022/12/13 12:02:34;;;;;;;6.00;1.30;;;16.80;96.70;;;;;;5030717;28;20060;-68
2022/12/13 12:05:07;;;;;;;6.55;0.88;;;16.70;96.90;;;;;;5032988;28;20024;-68
2022/12/13 12:07:49;;;;;;;10.27;1.30;;;16.50;97.80;;;;;;5040747;28;20059;-70
2022/12/13 12:10:34;;;;;;;5.05;1.27;;;16.40;98.50;;;;;;5050510;28;20031;-68
2022/12/13 12:13:22;;;;;;;4.60;1.10;;;16.30;98.30;;;;;;5030297;28;20063;-68
2022/12/13 12:16:26;;;;;;;5.13;1.10;;;16.10;98.40;;;;;;5043732;28;20382;-68
2022/12/13 12:18:54;;;;;;;6.30;1.30;;;16.00;99.10;;;;;;5048419;28;20041;-67
2022/12/13 12:21:37;;;;;;;9.00;1.70;;;15.80;99.40;;;;;;5069712;28;20024;-64
2022/12/13 12:24:13;;;;;;;8.77;1.33;;;15.80;99.90;;;;;;5057192;28;20017;-68
2022/12/13 12:27:01;;;;;;;3.47;1.02;;;15.70;99.90;;;;;;5049899;28;20465;-68
2022/12/13 12:29:52;;;;;;;5.70;0.98;;;15.60;99.90;;;;;;5048955;28;20021;-68
2022/12/13 12:32:50;;;;;;;4.75;0.93;;;15.50;99.90;;;;;;5042883;28;20033;-67
2022/12/13 12:35:36;;;;;;;10.68;1.77;;;15.40;99.90;;;;;;5034406;28;20114;-67
2022/12/13 12:38:24;;;;;;;16.42;2.05;;;15.30;99.90;;;;;;5043058;28;20040;-68
2022/12/13 12:41:30;;;;;;;21.15;2.53;;;15.30;99.90;;;;;;5041344;28;20025;-67
2022/12/13 12:44:05;;;;;;;;;;;15.30;99.90;;;;;;5030960;28;20050;-68
2022/12/13 12:46:44;;;;;;;28.58;3.88;;;15.30;99.90;;;;;;5038722;28;19921;-68
2022/12/13 12:49:50;;;;;;;42.70;2.78;;;15.20;99.90;;;;;;5047292;28;20090;-68
2022/12/13 12:52:44;;;;;;;32.85;4.03;;;15.10;99.90;;;;;;5043077;28;20063;-69
2022/12/13 12:55:45;;;;;;;19.52;2.35;;;15.10;99.90;;;;;;5047121;28;20061;-67
2022/12/13 12:58:18;;;;;;;22.27;2.20;;;15.30;99.90;;;;;;5040191;28;20335;-69
2022/12/13 13:00:48;;;;;;;16.83;2.28;;;15.30;99.90;;;;;;5039469;28;20091;-69
2022/12/13 13:03:24;;;;;;;14.13;1.98;;;15.40;99.90;;;;;;5035685;28;20031;-68
2022/12/13 13:05:58;;;;;;;16.15;3.25;;;15.50;99.90;;;;;;5042873;28;20033;-67
2022/12/13 13:08:28;;;;;;;9.77;2.33;;;15.50;99.90;;;;;;5046727;28;20053;-67
2022/12/13 13:10:57;;;;;;;11.18;2.00;;;15.40;99.90;;;;;;5040033;28;20472;-68
2022/12/13 13:13:44;;;;;;;9.30;1.95;;;15.30;99.90;;;;;;5032380;28;20033;-69
2022/12/13 13:16:31;;;;;;;6.43;1.70;;;15.20;99.90;;;;;;5048426;28;20029;-68